Time;durP1;ratioP1;P1;durP2;ratioP2;P2;SDS_P1;SDS_P2;PMS_P1;PMS_P2;Temp;Humidity;BMP_temperature;BMP_pressure;BME280_temperature;BME280_humidity;BME280_pressure;Samples;Min_cycle;Max_cycle;Signal;HPM_P1;HPM_P2
2022/08/29 00:01:48;;;;;;;7.32;2.38;;;20.30;61.20;;;;;;5026887;28;20117;-78
2022/08/29 00:04:14;;;;;;;6.00;2.25;;;20.30;61.30;;;;;;5017539;28;20779;-78
2022/08/29 00:06:40;;;;;;;3.38;1.92;;;20.30;61.60;;;;;;5033773;28;20074;-78
2022/08/29 00:09:06;;;;;;;5.47;2.55;;;20.30;62.00;;;;;;5037047;28;20037;-78
2022/08/29 00:11:32;;;;;;;6.35;2.60;;;20.30;62.30;;;;;;5036552;28;20029;-78
2022/08/29 00:13:58;;;;;;;5.38;2.50;;;20.20;62.00;;;;;;5035296;28;20508;-78
2022/08/29 00:16:24;;;;;;;3.95;1.88;;;20.10;62.00;;;;;;5017123;28;20539;-78
2022/08/29 00:18:49;;;;;;;6.28;3.08;;;20.20;62.20;;;;;;5018110;28;20551;-78
2022/08/29 00:21:15;;;;;;;7.63;2.97;;;20.10;62.20;;;;;;5017623;28;20026;-78
2022/08/29 00:23:43;;;;;;;8.82;2.50;;;20.10;61.90;;;;;;5022847;28;20033;-79
2022/08/29 00:26:09;;;;;;;9.93;2.72;;;20.10;62.10;;;;;;5017602;28;20110;-78
2022/08/29 00:28:35;;;;;;;8.25;3.15;;;20.10;61.90;;;;;;5006101;28;20074;-78
2022/08/29 00:31:00;;;;;;;5.60;2.38;;;20.10;61.70;;;;;;4999989;28;20033;-78
2022/08/29 00:33:26;;;;;;;4.88;2.30;;;20.10;61.80;;;;;;5015413;28;20029;-78
2022/08/29 00:35:52;;;;;;;5.78;2.28;;;20.10;61.40;;;;;;5016483;28;20599;-78
2022/08/29 00:38:18;;;;;;;8.85;2.78;;;20.00;62.00;;;;;;5017299;28;20026;-78
2022/08/29 00:40:50;;;;;;;4.47;2.60;;;20.00;62.00;;;;;;5017747;28;20032;-78
2022/08/29 00:43:19;;;;;;;3.47;2.38;;;20.00;61.80;;;;;;5017233;28;20389;-78
2022/08/29 00:46:15;;;;;;;5.00;2.67;;;20.00;61.90;;;;;;5031080;28;20068;-78
2022/08/29 00:48:42;;;;;;;5.68;2.53;;;19.90;62.10;;;;;;5035840;28;20089;-78
2022/08/29 00:51:13;;;;;;;8.93;2.63;;;19.90;62.20;;;;;;5019292;28;20515;-78
2022/08/29 00:53:46;;;;;;;4.97;2.60;;;19.80;62.20;;;;;;5035224;28;20048;-78
2022/08/29 00:56:14;;;;;;;4.00;2.75;;;19.80;62.30;;;;;;5036115;28;20040;-78
2022/08/29 00:58:52;;;;;;;7.25;2.67;;;19.80;62.10;;;;;;5036659;28;20030;-78
2022/08/29 01:01:18;;;;;;;3.65;2.25;;;19.80;62.30;;;;;;5036004;28;20029;-78
2022/08/29 01:03:45;;;;;;;8.40;2.78;;;19.80;62.30;;;;;;5036673;28;20030;-78
2022/08/29 01:06:15;;;;;;;7.70;2.53;;;19.70;62.30;;;;;;5036219;28;20083;-78
2022/08/29 01:08:41;;;;;;;5.85;2.33;;;19.70;62.40;;;;;;5018595;28;20026;-78
2022/08/29 01:13:54;;;;;;;5.75;2.53;;;19.60;62.60;;;;;;5035235;28;20041;-78
2022/08/29 01:16:22;;;;;;;5.50;2.88;;;19.60;63.00;;;;;;5035222;28;20056;-78
2022/08/29 01:18:52;;;;;;;9.85;3.15;;;19.60;63.40;;;;;;5036557;28;20033;-78
2022/08/29 01:21:23;;;;;;;8.77;3.08;;;19.60;63.10;;;;;;5036396;28;20030;-78
2022/08/29 01:24:30;;;;;;;4.95;2.58;;;19.60;62.60;;;;;;5035627;28;20063;-78
2022/08/29 01:26:56;;;;;;;6.95;2.88;;;19.50;62.90;;;;;;5002879;28;20042;-78
2022/08/29 01:29:22;;;;;;;5.93;2.78;;;19.50;62.80;;;;;;5015403;28;20084;-78
2022/08/29 01:31:50;;;;;;;7.80;2.88;;;19.50;62.50;;;;;;5016180;28;20072;-78
2022/08/29 01:34:18;;;;;;;5.25;2.22;;;19.50;62.80;;;;;;5014360;28;20029;-78
2022/08/29 01:36:52;;;;;;;5.20;2.50;;;19.50;62.90;;;;;;5017533;28;20041;-78
2022/08/29 01:39:21;;;;;;;5.65;2.85;;;19.40;63.10;;;;;;5034722;28;20449;-78
2022/08/29 01:41:47;;;;;;;3.85;2.45;;;19.40;62.80;;;;;;5035939;28;20039;-78
2022/08/29 01:44:20;;;;;;;7.72;2.58;;;19.40;63.10;;;;;;5035864;28;20485;-78
2022/08/29 01:46:48;;;;;;;6.47;2.55;;;19.30;63.10;;;;;;5035529;28;20025;-78
2022/08/29 01:49:14;;;;;;;6.78;3.22;;;19.30;63.00;;;;;;5035908;28;20033;-78
2022/08/29 01:51:40;;;;;;;6.47;2.72;;;19.30;63.00;;;;;;5016616;28;20029;-78
2022/08/29 01:54:08;;;;;;;5.38;2.65;;;19.30;62.90;;;;;;5035686;28;20033;-77
2022/08/29 01:56:37;;;;;;;8.48;2.72;;;19.30;63.00;;;;;;5033012;28;20350;-77
2022/08/29 01:59:06;;;;;;;6.65;2.80;;;19.30;63.00;;;;;;5031833;28;20041;-77
2022/08/29 02:01:34;;;;;;;7.03;2.50;;;19.30;63.10;;;;;;5015760;28;20018;-78
2022/08/29 02:03:59;;;;;;;6.97;2.72;;;19.30;62.80;;;;;;5015983;28;20044;-78
2022/08/29 02:06:26;;;;;;;6.38;2.45;;;19.30;62.90;;;;;;5028793;28;20051;-78
2022/08/29 02:08:52;;;;;;;5.38;2.72;;;19.30;62.80;;;;;;5035416;28;20034;-78
2022/08/29 02:11:19;;;;;;;3.90;2.50;;;19.30;62.80;;;;;;5033939;28;20500;-78
2022/08/29 02:13:48;;;;;;;7.28;2.40;;;19.30;62.60;;;;;;5034943;28;20033;-77
2022/08/29 02:16:14;;;;;;;5.07;2.72;;;19.30;62.50;;;;;;5035088;28;20462;-78
2022/08/29 02:18:43;;;;;;;5.30;2.78;;;19.20;62.50;;;;;;5034241;28;20504;-77
2022/08/29 02:21:11;;;;;;;4.97;2.65;;;19.20;62.40;;;;;;5035380;28;20021;-78
2022/08/29 02:23:37;;;;;;;7.20;3.00;;;19.20;62.50;;;;;;5016617;28;20034;-77
2022/08/29 02:26:04;;;;;;;7.50;2.58;;;19.20;62.60;;;;;;5014188;28;20030;-78
2022/08/29 02:28:50;;;;;;;4.35;2.28;;;19.20;62.30;;;;;;5013588;28;20560;-78
2022/08/29 02:31:17;;;;;;;4.63;2.15;;;19.20;62.20;;;;;;5034846;28;20381;-78
2022/08/29 02:33:43;;;;;;;6.22;2.58;;;19.20;62.20;;;;;;5034738;28;20113;-78
2022/08/29 02:36:09;;;;;;;5.93;2.72;;;19.20;62.00;;;;;;5035132;28;20136;-78
2022/08/29 02:38:35;;;;;;;6.65;2.38;;;19.20;62.30;;;;;;5035306;28;20029;-77
2022/08/29 02:41:01;;;;;;;5.18;2.47;;;19.20;62.00;;;;;;5033576;28;20025;-78
2022/08/29 02:43:27;;;;;;;6.05;2.25;;;19.20;61.90;;;;;;5035123;28;20071;-77
2022/08/29 02:45:58;;;;;;;5.78;2.30;;;19.20;61.80;;;;;;5035068;28;20022;-77
2022/08/29 02:48:24;;;;;;;5.82;2.60;;;19.20;61.80;;;;;;5034255;28;20079;-78
2022/08/29 02:50:52;;;;;;;8.25;2.80;;;19.20;62.00;;;;;;5013852;28;20038;-78
2022/08/29 02:53:20;;;;;;;4.60;1.92;;;19.20;62.00;;;;;;4997898;28;20036;-77
2022/08/29 02:55:46;;;;;;;5.32;2.25;;;19.20;61.80;;;;;;5015656;28;20509;-78
2022/08/29 02:58:12;;;;;;;4.22;2.10;;;19.20;61.70;;;;;;5035325;28;20034;-78
2022/08/29 03:00:39;;;;;;;9.05;2.70;;;19.20;61.60;;;;;;5034959;28;20075;-78
2022/08/29 03:03:05;;;;;;;4.85;2.33;;;19.20;61.70;;;;;;5031956;28;20022;-77
2022/08/29 03:05:33;;;;;;;6.00;3.05;;;19.20;61.40;;;;;;5035085;28;20039;-78
2022/08/29 03:08:01;;;;;;;3.60;2.08;;;19.20;61.20;;;;;;5033578;28;20027;-77
2022/08/29 03:10:27;;;;;;;4.38;2.65;;;19.10;61.30;;;;;;5034886;28;20033;-78
2022/08/29 03:12:54;;;;;;;3.08;1.88;;;19.10;61.20;;;;;;5034422;28;20108;-77
2022/08/29 03:15:21;;;;;;;4.75;2.83;;;19.10;61.00;;;;;;5016574;28;20029;-78
2022/08/29 03:17:47;;;;;;;6.80;2.50;;;19.10;61.20;;;;;;5034644;28;20025;-78
2022/08/29 03:20:17;;;;;;;5.13;2.40;;;19.10;61.10;;;;;;5016770;28;20048;-77
2022/08/29 03:22:44;;;;;;;3.00;2.13;;;19.10;60.90;;;;;;5017068;28;20022;-78
2022/08/29 03:25:11;;;;;;;4.75;2.60;;;19.10;61.20;;;;;;5031259;28;20045;-78
2022/08/29 03:27:38;;;;;;;6.03;2.75;;;19.10;60.80;;;;;;5033808;28;20036;-78
2022/08/29 03:30:08;;;;;;;7.80;2.40;;;19.00;60.80;;;;;;5034097;28;20040;-77
2022/08/29 03:32:34;;;;;;;4.20;2.00;;;19.10;60.60;;;;;;5034500;28;20029;-78
2022/08/29 03:35:00;;;;;;;6.45;2.45;;;19.00;60.60;;;;;;5034142;28;20033;-77
2022/08/29 03:37:26;;;;;;;7.30;2.00;;;19.00;60.60;;;;;;5034629;28;20025;-77
2022/08/29 03:39:53;;;;;;;5.45;1.67;;;19.00;60.60;;;;;;5035685;28;20121;-77
2022/08/29 03:42:19;;;;;;;4.22;1.63;;;19.00;60.60;;;;;;5037567;28;20034;-77
2022/08/29 03:44:45;;;;;;;9.63;2.17;;;19.00;60.70;;;;;;5037305;28;20057;-77
2022/08/29 03:47:10;;;;;;;6.35;2.95;;;19.00;60.60;;;;;;5036282;28;20592;-78
2022/08/29 03:49:36;;;;;;;3.60;2.05;;;18.90;60.70;;;;;;5037973;28;20033;-78
2022/08/29 03:52:03;;;;;;;3.58;1.90;;;18.90;60.50;;;;;;5038129;28;20449;-78
2022/08/29 03:54:32;;;;;;;6.07;2.28;;;18.90;60.50;;;;;;5019657;28;20026;-77
2022/08/29 03:56:57;;;;;;;4.95;2.35;;;18.90;60.50;;;;;;5036183;28;20064;-77
2022/08/29 03:59:23;;;;;;;5.30;2.63;;;18.90;60.50;;;;;;5037779;28;20507;-77
2022/08/29 04:01:50;;;;;;;5.53;2.50;;;18.90;60.40;;;;;;5035050;28;20021;-77
2022/08/29 04:07:03;;;;;;;3.80;1.55;;;18.90;60.40;;;;;;5036547;28;20040;-77
2022/08/29 04:09:29;;;;;;;4.25;2.00;;;18.90;60.60;;;;;;5037535;28;20037;-78
2022/08/29 04:11:55;;;;;;;5.68;2.00;;;18.90;60.50;;;;;;5037088;28;20489;-77
2022/08/29 04:14:21;;;;;;;3.42;1.75;;;18.90;60.60;;;;;;5037622;28;20033;-77
2022/08/29 04:16:51;;;;;;;2.95;1.90;;;18.90;60.50;;;;;;5037312;28;20056;-78
2022/08/29 04:19:18;;;;;;;5.57;2.13;;;18.90;60.50;;;;;;5035014;28;20049;-78
2022/08/29 04:21:44;;;;;;;6.53;2.03;;;18.90;60.30;;;;;;5036446;28;20020;-77
2022/08/29 04:24:13;;;;;;;4.35;2.28;;;18.90;60.60;;;;;;5019072;28;20049;-77
2022/08/29 04:26:39;;;;;;;3.42;1.92;;;18.80;60.50;;;;;;5037224;28;20040;-77
2022/08/29 04:29:08;;;;;;;4.43;2.15;;;18.80;60.70;;;;;;5019024;28;20548;-78
2022/08/29 04:31:35;;;;;;;6.68;2.70;;;18.80;60.60;;;;;;5035892;28;20083;-78
2022/08/29 04:34:09;;;;;;;5.15;2.08;;;18.80;61.10;;;;;;5019620;28;20121;-78
2022/08/29 04:36:36;;;;;;;4.85;2.30;;;18.80;60.90;;;;;;5037023;28;20029;-77
2022/08/29 04:39:01;;;;;;;4.38;1.75;;;18.80;61.10;;;;;;5034550;28;20033;-78
2022/08/29 04:41:27;;;;;;;4.45;2.30;;;18.70;61.30;;;;;;5035982;28;20032;-78
2022/08/29 04:43:53;;;;;;;3.65;1.90;;;18.60;61.50;;;;;;5036878;28;20397;-78
2022/08/29 04:46:18;;;;;;;8.63;2.17;;;18.70;61.20;;;;;;5018047;28;20107;-77
2022/08/29 04:48:44;;;;;;;3.10;1.90;;;18.60;61.30;;;;;;5016002;28;20044;-77
2022/08/29 04:51:12;;;;;;;2.97;1.92;;;18.60;61.80;;;;;;5015306;28;20369;-79
2022/08/29 04:53:38;;;;;;;5.90;2.05;;;18.60;61.40;;;;;;5016056;28;20030;-80
2022/08/29 04:56:09;;;;;;;8.55;2.10;;;18.60;61.60;;;;;;5036727;28;20048;-80
2022/08/29 04:58:37;;;;;;;4.32;2.17;;;18.60;61.40;;;;;;5036206;28;20033;-83
2022/08/29 05:01:04;;;;;;;5.03;2.17;;;18.60;61.50;;;;;;5035509;28;20025;-83
2022/08/29 05:03:31;;;;;;;4.30;2.45;;;18.60;61.50;;;;;;5033948;28;20080;-82
2022/08/29 05:05:58;;;;;;;3.88;2.03;;;18.50;61.50;;;;;;5013262;28;20095;-81
2022/08/29 05:08:30;;;;;;;5.30;2.33;;;18.50;61.40;;;;;;5018959;28;20052;-83
2022/08/29 05:10:55;;;;;;;5.13;2.00;;;18.50;61.50;;;;;;5018625;28;20024;-80
2022/08/29 05:13:27;;;;;;;5.40;2.13;;;18.50;61.50;;;;;;5036456;28;20489;-82
2022/08/29 05:38:53;;;;;;;;;;;;;;;;;;;;;
2022/08/29 06:35:00;;;;;;;7.60;2.17;;;19.00;60.20;;;;;;6137059;22;2080413;-81
2022/08/29 06:37:28;;;;;;;6.38;1.88;;;19.10;60.30;;;;;;6193665;23;20779;-86
2022/08/29 06:39:54;;;;;;;4.20;2.10;;;19.10;60.00;;;;;;6193266;23;20051;-86
2022/08/29 06:42:23;;;;;;;3.92;1.73;;;19.10;59.90;;;;;;6194909;23;20028;-81
2022/08/29 06:45:08;;;;;;;;;;;;;;;;;;;;;
2022/08/29 06:47:39;;;;;;;2.55;1.10;;;19.20;59.40;;;;;;6194845;23;20307;-83
2022/08/29 06:50:05;;;;;;;5.32;1.55;;;19.30;59.30;;;;;;6193332;23;20445;-83
2022/08/29 06:52:31;;;;;;;2.45;1.48;;;19.30;59.20;;;;;;6191556;23;20448;-82
2022/08/29 06:54:57;;;;;;;2.90;1.50;;;19.40;58.90;;;;;;6193016;23;20139;-81
2022/08/29 06:57:33;;;;;;;3.05;1.70;;;19.40;58.90;;;;;;6192893;23;20020;-82
2022/08/29 06:59:59;;;;;;;3.05;1.15;;;19.50;58.70;;;;;;6196855;23;20342;-81
2022/08/29 07:02:24;;;;;;;2.83;1.50;;;19.50;58.90;;;;;;6196795;23;20009;-82
2022/08/29 07:04:53;;;;;;;3.05;1.55;;;19.50;58.90;;;;;;6196414;23;20012;-82
2022/08/29 07:07:21;;;;;;;3.38;1.08;;;19.60;58.50;;;;;;6196661;23;20008;-83
2022/08/29 07:09:47;;;;;;;4.05;1.95;;;19.50;58.40;;;;;;6196225;23;20003;-82
2022/08/29 07:12:12;;;;;;;4.53;1.80;;;19.60;58.40;;;;;;6195429;23;20437;-85
2022/08/29 07:14:40;;;;;;;4.38;1.75;;;19.70;58.60;;;;;;6195663;23;20004;-82
2022/08/29 07:17:06;;;;;;;5.75;1.67;;;19.80;58.50;;;;;;6188489;23;20037;-81
2022/08/29 07:19:32;;;;;;;6.22;1.75;;;19.80;58.40;;;;;;6186784;23;20450;-80
2022/08/29 07:21:58;;;;;;;4.75;2.03;;;19.80;58.70;;;;;;6188104;23;20012;-81
2022/08/29 07:24:24;;;;;;;4.30;1.75;;;19.80;58.90;;;;;;6184096;23;20110;-80
2022/08/29 07:26:49;;;;;;;3.92;1.65;;;19.90;58.60;;;;;;6187032;23;20024;-81
2022/08/29 07:29:18;;;;;;;8.90;1.73;;;20.00;58.40;;;;;;6187913;23;20001;-81
2022/08/29 07:31:48;;;;;;;4.13;1.45;;;20.00;58.20;;;;;;6186328;23;20028;-80
2022/08/29 07:34:14;;;;;;;5.40;1.80;;;20.10;58.10;;;;;;6185461;23;20044;-81
2022/08/29 07:36:40;;;;;;;8.82;1.52;;;20.20;57.80;;;;;;6217423;23;20005;-81
2022/08/29 07:39:12;;;;;;;3.00;1.58;;;20.30;57.70;;;;;;6216086;23;20057;-81
2022/08/29 07:41:39;;;;;;;3.78;1.65;;;20.40;57.20;;;;;;6189276;23;20004;-81
2022/08/29 07:44:05;;;;;;;4.88;2.00;;;20.50;56.90;;;;;;6215674;23;20051;-81
2022/08/29 07:46:31;;;;;;;3.17;1.85;;;20.70;57.10;;;;;;6215012;23;20027;-81
2022/08/29 07:48:58;;;;;;;2.92;1.50;;;20.70;56.90;;;;;;6189177;23;20087;-81
2022/08/29 07:51:25;;;;;;;2.03;1.30;;;20.80;56.70;;;;;;6215747;23;20061;-81
2022/08/29 07:53:52;;;;;;;6.82;1.88;;;21.00;56.40;;;;;;6216389;23;20012;-81
2022/08/29 07:56:32;;;;;;;2.95;1.48;;;21.30;56.50;;;;;;6216408;23;20008;-82
2022/08/29 07:58:59;;;;;;;4.88;1.55;;;23.10;53.10;;;;;;6217326;23;20001;-82
2022/08/29 08:01:26;;;;;;;6.50;1.67;;;25.30;47.70;;;;;;6191079;23;20009;-82
2022/08/29 08:03:52;;;;;;;4.30;1.60;;;26.40;44.70;;;;;;6217932;23;20066;-82
2022/08/29 08:06:24;;;;;;;5.65;1.48;;;27.60;43.00;;;;;;6190612;23;20031;-83
2022/08/29 08:08:50;;;;;;;3.42;2.05;;;28.70;40.40;;;;;;6191740;23;20091;-83
2022/08/29 08:11:16;;;;;;;6.63;1.70;;;29.50;39.00;;;;;;6218794;23;19997;-83
2022/08/29 08:13:43;;;;;;;4.32;1.95;;;30.10;37.50;;;;;;6218657;23;20083;-82
2022/08/29 08:16:12;;;;;;;7.10;2.35;;;30.60;36.70;;;;;;6191364;23;20005;-83
2022/08/29 08:18:39;;;;;;;4.78;1.20;;;30.70;36.10;;;;;;6218976;23;20000;-82
2022/08/29 08:21:05;;;;;;;6.82;1.70;;;30.80;36.20;;;;;;6191883;23;20016;-83
2022/08/29 08:23:31;;;;;;;5.40;1.52;;;30.60;36.00;;;;;;6215492;23;19997;-83
2022/08/29 08:25:57;;;;;;;4.18;1.17;;;30.20;36.40;;;;;;6217285;23;20733;-82
2022/08/29 08:28:22;;;;;;;4.32;1.30;;;29.40;38.10;;;;;;6190096;23;20009;-82
2022/08/29 08:30:48;;;;;;;4.60;1.48;;;29.10;38.80;;;;;;6217507;23;20202;-83
2022/08/29 08:33:14;;;;;;;5.15;1.50;;;28.60;39.80;;;;;;6216852;23;20005;-82
2022/08/29 08:35:40;;;;;;;4.63;1.50;;;28.20;40.60;;;;;;6188395;23;20063;-82
2022/08/29 08:38:09;;;;;;;4.80;1.45;;;27.70;41.10;;;;;;6216599;23;20004;-82
2022/08/29 08:40:43;;;;;;;3.55;1.73;;;27.30;41.70;;;;;;6190874;23;20012;-81
2022/08/29 08:43:12;;;;;;;4.78;1.83;;;27.10;42.70;;;;;;6216806;23;20007;-82
2022/08/29 08:45:41;;;;;;;3.47;1.48;;;27.10;42.60;;;;;;6218513;23;20379;-82
2022/08/29 08:48:10;;;;;;;;;;;27.20;43.30;;;;;;6218379;23;20390;-82
2022/08/29 08:50:50;;;;;;;6.22;1.65;;;27.40;43.00;;;;;;6191659;23;19911;-82
2022/08/29 08:53:27;;;;;;;6.43;2.28;;;27.50;42.10;;;;;;6218689;23;20005;-82
2022/08/29 08:55:55;;;;;;;5.40;1.67;;;27.40;42.40;;;;;;6217804;23;20000;-82
2022/08/29 08:58:47;;;;;;;5.35;1.80;;;27.20;42.60;;;;;;6216592;23;20000;-82
2022/08/29 09:01:28;;;;;;;7.15;2.00;;;26.80;43.40;;;;;;6190465;23;20087;-82
2022/08/29 09:04:41;;;;;;;3.42;1.65;;;26.50;44.50;;;;;;6217247;23;20001;-82
2022/08/29 09:07:25;;;;;;;2.80;1.88;;;26.00;44.90;;;;;;6217166;23;20345;-82
2022/08/29 09:09:54;;;;;;;5.60;1.88;;;26.00;45.70;;;;;;6190674;23;20059;-82
2022/08/29 09:12:39;;;;;;;4.13;1.40;;;26.10;46.20;;;;;;6216705;23;20005;-82
2022/08/29 09:15:28;;;;;;;4.03;1.55;;;26.30;45.70;;;;;;6190221;23;20432;-82
2022/08/29 09:18:02;;;;;;;2.92;2.10;;;26.80;44.90;;;;;;6216779;23;20072;-81
2022/08/29 09:20:35;;;;;;;3.53;1.73;;;27.40;43.80;;;;;;6217151;23;20003;-82
2022/08/29 09:23:38;;;;;;;5.30;1.67;;;28.20;42.60;;;;;;6190066;23;20005;-82
2022/08/29 09:26:04;;;;;;;4.30;1.58;;;29.30;40.50;;;;;;6216754;23;20079;-82
2022/08/29 09:28:30;;;;;;;3.60;1.75;;;30.40;37.50;;;;;;6216327;23;20066;-83
2022/08/29 09:31:21;;;;;;;4.15;1.85;;;31.20;37.30;;;;;;6216698;23;20005;-83
2022/08/29 09:33:59;;;;;;;4.53;1.80;;;32.40;35.50;;;;;;6190886;23;20004;-82
2022/08/29 09:36:42;;;;;;;3.95;2.05;;;33.30;33.60;;;;;;6217546;23;20021;-82
2022/08/29 09:39:13;;;;;;;4.88;2.03;;;34.10;33.30;;;;;;6190383;23;20079;-82
2022/08/29 09:41:39;;;;;;;5.75;1.70;;;34.70;31.70;;;;;;6188480;23;20080;-82
2022/08/29 09:44:10;;;;;;;5.07;2.03;;;35.00;31.60;;;;;;6189844;23;20001;-82
2022/08/29 09:46:36;;;;;;;2.40;1.77;;;35.20;30.20;;;;;;6189366;23;20008;-81
2022/08/29 09:49:01;;;;;;;3.88;1.45;;;35.30;30.40;;;;;;6190789;23;20009;-81
2022/08/29 09:51:30;;;;;;;2.72;1.60;;;35.50;30.30;;;;;;6190194;23;20421;-82
2022/08/29 09:54:31;;;;;;;;;;;35.60;30.40;;;;;;6191976;23;20008;-81
2022/08/29 09:57:18;;;;;;;4.32;1.70;;;35.80;30.00;;;;;;6137446;23;19931;-81
2022/08/29 10:00:04;;;;;;;3.97;1.63;;;35.90;29.90;;;;;;6190321;23;20441;-82
2022/08/29 10:02:45;;;;;;;6.07;2.00;;;35.60;29.80;;;;;;6189843;23;20013;-82
2022/08/29 10:05:29;;;;;;;3.58;1.80;;;35.80;29.80;;;;;;6216916;23;20011;-82
2022/08/29 10:07:56;;;;;;;7.13;2.00;;;35.90;29.30;;;;;;6217275;23;20036;-81
2022/08/29 10:10:33;;;;;;;3.22;1.55;;;36.00;29.90;;;;;;6191509;23;20062;-82
2022/08/29 10:12:59;;;;;;;5.10;1.80;;;36.10;29.20;;;;;;6188920;23;20004;-83
2022/08/29 10:15:30;;;;;;;6.32;2.17;;;36.00;29.60;;;;;;6216836;23;20445;-82
2022/08/29 10:18:27;;;;;;;4.00;1.88;;;35.90;29.70;;;;;;6215917;23;20452;-81
2022/08/29 10:21:28;;;;;;;3.35;1.42;;;35.80;29.80;;;;;;6217456;23;20028;-82
2022/08/29 10:24:02;;;;;;;3.33;1.75;;;35.40;29.50;;;;;;6218189;23;20433;-82
2022/08/29 10:26:57;;;;;;;5.75;1.85;;;34.80;30.70;;;;;;6191278;23;20024;-82
2022/08/29 10:29:38;;;;;;;4.95;2.28;;;33.70;32.30;;;;;;6190851;23;20008;-82
2022/08/29 10:32:22;;;;;;;4.75;1.73;;;32.90;34.00;;;;;;6191265;23;20016;-82
2022/08/29 10:35:19;;;;;;;2.80;1.67;;;32.30;35.10;;;;;;6217514;23;20095;-81
2022/08/29 10:38:12;;;;;;;4.07;2.40;;;31.80;36.30;;;;;;6217637;23;20009;-81
2022/08/29 10:41:04;;;;;;;4.85;2.00;;;31.30;36.10;;;;;;6216814;23;20001;-81
2022/08/29 10:43:32;;;;;;;4.57;1.80;;;30.90;37.20;;;;;;6140475;23;20016;-81
2022/08/29 10:46:26;;;;;;;5.10;1.90;;;30.70;37.60;;;;;;6216959;23;20016;-81
2022/08/29 10:48:54;;;;;;;3.85;2.03;;;30.40;38.20;;;;;;6190536;23;20236;-82
2022/08/29 10:51:30;;;;;;;5.18;2.00;;;30.30;38.20;;;;;;6217541;23;20000;-83
2022/08/29 10:54:19;;;;;;;4.93;2.10;;;30.20;38.40;;;;;;6193293;23;20382;-82
2022/08/29 10:56:48;;;;;;;6.10;2.60;;;30.00;38.70;;;;;;6219554;23;20071;-82
2022/08/29 10:59:27;;;;;;;4.18;1.83;;;29.90;39.70;;;;;;6220064;23;20000;-82
2022/08/29 11:02:04;;;;;;;5.25;2.40;;;29.90;40.00;;;;;;6219640;23;20001;-82
2022/08/29 11:04:39;;;;;;;6.07;2.30;;;29.80;38.70;;;;;;6192841;23;20017;-82
2022/08/29 11:07:21;;;;;;;4.38;2.30;;;29.40;39.80;;;;;;6219320;23;20008;-82
2022/08/29 11:09:50;;;;;;;6.10;2.92;;;29.40;40.50;;;;;;6219695;23;20008;-84
2022/08/29 11:12:33;;;;;;;5.75;2.22;;;29.50;40.60;;;;;;6192437;23;20050;-80
2022/08/29 11:15:04;;;;;;;3.90;1.80;;;29.50;40.90;;;;;;6192038;23;20013;-79
2022/08/29 11:17:36;;;;;;;3.38;2.40;;;29.60;41.40;;;;;;6193766;23;20013;-79
2022/08/29 11:20:23;;;;;;;4.68;2.47;;;29.70;40.90;;;;;;6195373;23;20084;-81
2022/08/29 11:22:58;;;;;;;5.00;2.25;;;29.70;40.40;;;;;;6220951;23;20001;-80
2022/08/29 11:25:24;;;;;;;2.97;2.10;;;29.60;39.80;;;;;;6219664;23;20016;-79
2022/08/29 11:28:00;;;;;;;5.60;2.45;;;29.70;40.80;;;;;;6192868;23;20004;-78
2022/08/29 11:31:03;;;;;;;3.17;2.08;;;29.80;40.80;;;;;;6219375;23;20001;-80
2022/08/29 11:33:40;;;;;;;4.95;2.75;;;29.80;40.00;;;;;;6173975;23;20008;-78
2022/08/29 11:36:55;;;;;;;3.45;1.90;;;29.60;40.20;;;;;;6219311;23;20485;-78
2022/08/29 11:39:46;;;;;;;3.92;2.33;;;29.50;40.40;;;;;;6138146;23;20017;-81
2022/08/29 11:42:15;;;;;;;3.88;2.67;;;29.70;41.30;;;;;;6219132;23;20012;-80
2022/08/29 11:44:57;;;;;;;4.22;2.10;;;29.70;40.90;;;;;;6218761;23;20005;-83
2022/08/29 11:47:37;;;;;;;7.97;2.90;;;29.50;40.40;;;;;;6193617;23;20005;-85
2022/08/29 11:50:14;;;;;;;8.73;2.92;;;29.60;41.00;;;;;;6219324;23;20449;-83
2022/08/29 11:52:55;;;;;;;4.85;2.50;;;29.70;41.20;;;;;;6219626;23;20398;-82
2022/08/29 11:55:29;;;;;;;5.65;2.90;;;29.50;40.60;;;;;;6215990;23;20053;-86
2022/08/29 11:58:12;;;;;;;6.68;2.85;;;29.30;40.20;;;;;;6218171;23;20001;-84
2022/08/29 12:00:58;;;;;;;4.43;2.42;;;29.30;41.40;;;;;;6218502;23;20007;-83
2022/08/29 12:03:33;;;;;;;5.20;2.97;;;29.40;41.90;;;;;;6190887;23;20092;-83
2022/08/29 12:06:21;;;;;;;4.70;2.75;;;29.30;41.30;;;;;;6217815;23;20000;-85
2022/08/29 12:09:11;;;;;;;4.18;2.25;;;29.30;41.30;;;;;;6217878;23;20007;-85
2022/08/29 12:12:04;;;;;;;5.15;2.88;;;29.40;41.20;;;;;;6217271;23;20412;-86
2022/08/29 12:14:34;;;;;;;6.70;2.58;;;29.30;40.30;;;;;;6217686;23;20337;-86
2022/08/29 12:17:03;;;;;;;6.10;3.53;;;29.50;41.00;;;;;;6217808;23;20000;-84
2022/08/29 12:19:47;;;;;;;7.20;3.00;;;29.50;40.40;;;;;;6218004;23;20001;-84
2022/08/29 12:22:50;;;;;;;3.78;2.67;;;29.60;41.10;;;;;;6217490;23;20076;-83
2022/08/29 12:25:26;;;;;;;5.53;3.17;;;29.80;41.40;;;;;;6217208;23;20004;-84
2022/08/29 12:28:16;;;;;;;7.18;3.15;;;29.80;41.10;;;;;;6191476;23;20005;-85
2022/08/29 12:30:48;;;;;;;5.00;2.97;;;29.80;40.60;;;;;;6217472;23;20020;-85
2022/08/29 12:33:20;;;;;;;5.65;2.95;;;29.80;40.60;;;;;;6191069;23;20020;-85
2022/08/29 12:36:25;;;;;;;6.70;2.90;;;29.80;40.90;;;;;;6216662;23;20065;-86
2022/08/29 12:39:05;;;;;;;5.88;3.00;;;29.70;39.80;;;;;;6218182;23;20370;-85
2022/08/29 12:41:34;;;;;;;5.18;2.70;;;29.60;40.00;;;;;;6190365;23;20479;-86
2022/08/29 12:44:05;;;;;;;6.57;2.80;;;29.70;40.60;;;;;;6216102;23;19996;-85
2022/08/29 12:46:35;;;;;;;5.43;3.08;;;29.80;40.40;;;;;;6217960;23;20451;-86
2022/08/29 12:49:22;;;;;;;8.23;2.85;;;29.90;40.30;;;;;;6217827;23;20314;-84
2022/08/29 12:51:59;;;;;;;3.58;2.60;;;30.00;40.20;;;;;;6189220;23;20036;-85
2022/08/29 12:54:35;;;;;;;4.93;2.63;;;30.20;40.00;;;;;;6190993;23;20059;-85
2022/08/29 12:57:02;;;;;;;4.40;2.75;;;30.20;39.60;;;;;;6190998;23;20005;-85
2022/08/29 12:59:28;;;;;;;3.78;2.65;;;30.30;39.40;;;;;;6190176;23;20004;-86
2022/08/29 13:01:56;;;;;;;5.35;3.10;;;30.10;39.10;;;;;;6216732;23;20053;-85
2022/08/29 13:04:26;;;;;;;4.97;2.90;;;30.20;39.50;;;;;;6215375;23;19997;-84
2022/08/29 13:06:57;;;;;;;;;;;30.20;39.00;;;;;;6191533;23;20009;-85
2022/08/29 13:09:31;;;;;;;8.57;2.97;;;30.20;38.70;;;;;;6191217;23;20283;-85
2022/08/29 13:12:08;;;;;;;4.78;2.83;;;30.20;38.90;;;;;;6216897;23;20027;-85
2022/08/29 13:14:46;;;;;;;5.38;3.03;;;30.20;37.80;;;;;;6216607;23;20005;-84
2022/08/29 13:17:14;;;;;;;6.00;3.30;;;30.10;37.60;;;;;;6190699;23;20032;-85
2022/08/29 13:19:39;;;;;;;4.78;3.28;;;30.20;38.70;;;;;;6191257;23;20004;-86
2022/08/29 13:22:10;;;;;;;5.18;3.00;;;30.20;37.70;;;;;;6190805;23;20011;-86
2022/08/29 13:24:36;;;;;;;4.90;2.60;;;30.10;38.40;;;;;;6190645;23;20040;-85
2022/08/29 13:27:02;;;;;;;5.45;3.30;;;30.10;37.70;;;;;;6217078;23;20032;-87
2022/08/29 13:29:40;;;;;;;4.97;2.50;;;30.10;37.80;;;;;;6216486;23;20050;-83
2022/08/29 13:32:09;;;;;;;9.02;4.60;;;30.30;38.20;;;;;;6190755;23;20004;-81
2022/08/29 13:34:35;;;;;;;5.35;3.08;;;30.30;38.30;;;;;;6191565;23;20092;-84
2022/08/29 13:37:06;;;;;;;5.00;2.97;;;30.30;38.50;;;;;;6191680;23;20384;-83
2022/08/29 13:39:42;;;;;;;4.93;2.92;;;30.30;38.10;;;;;;6190934;23;20004;-83
2022/08/29 13:42:18;;;;;;;7.40;3.08;;;30.40;38.40;;;;;;6217658;23;20020;-83
2022/08/29 13:44:47;;;;;;;5.28;2.78;;;30.40;37.70;;;;;;6191354;23;20004;-84
2022/08/29 13:47:20;;;;;;;5.50;2.57;;;30.40;37.20;;;;;;6217839;23;20007;-84
2022/08/29 13:49:46;;;;;;;5.00;2.90;;;30.40;37.30;;;;;;6218103;23;20080;-84
2022/08/29 13:52:13;;;;;;;4.80;2.90;;;30.60;36.90;;;;;;6214244;23;20008;-84
2022/08/29 13:54:41;;;;;;;4.75;3.05;;;30.50;37.20;;;;;;6216626;23;20005;-84
2022/08/29 13:57:16;;;;;;;4.32;2.67;;;30.40;37.00;;;;;;6191382;23;20009;-84
2022/08/29 13:59:42;;;;;;;4.07;2.67;;;30.40;36.90;;;;;;6217874;23;20007;-83
2022/08/29 14:02:07;;;;;;;4.82;2.55;;;30.50;37.00;;;;;;6215921;23;20397;-82
2022/08/29 14:04:33;;;;;;;3.97;2.58;;;30.60;37.50;;;;;;6214781;23;20005;-85
2022/08/29 14:07:01;;;;;;;4.20;3.10;;;30.60;37.10;;;;;;6190020;23;20092;-85
2022/08/29 14:09:32;;;;;;;3.53;2.45;;;30.60;37.00;;;;;;6217037;23;20465;-86
2022/08/29 14:11:58;;;;;;;5.43;2.85;;;30.70;37.00;;;;;;6191282;23;20016;-86
2022/08/29 14:14:24;;;;;;;6.07;2.70;;;30.70;37.10;;;;;;6212871;23;20408;-85
2022/08/29 14:16:52;;;;;;;6.13;2.65;;;30.60;37.00;;;;;;6216342;23;20070;-87
2022/08/29 14:19:19;;;;;;;3.90;2.65;;;30.60;37.40;;;;;;6190780;23;20011;-83
2022/08/29 14:21:45;;;;;;;4.75;2.33;;;30.60;37.00;;;;;;6217385;23;20005;-88
2022/08/29 14:24:10;;;;;;;5.68;2.70;;;30.50;36.90;;;;;;6190398;23;20469;-89
2022/08/29 14:26:37;;;;;;;4.55;2.50;;;30.60;37.30;;;;;;6191673;23;20019;-89
2022/08/29 14:29:06;;;;;;;5.85;2.72;;;30.50;37.20;;;;;;6219952;23;20008;-89
2022/08/29 14:31:32;;;;;;;4.65;2.53;;;30.60;37.10;;;;;;6192936;23;20063;-88
2022/08/29 14:33:58;;;;;;;4.28;2.70;;;30.60;37.30;;;;;;6192872;23;20011;-90
2022/08/29 14:36:24;;;;;;;3.53;2.42;;;30.60;37.10;;;;;;6191453;23;20016;-89